Time;durP1;ratioP1;P1;durP2;ratioP2;P2;SDS_P1;SDS_P2;PMS_P1;PMS_P2;Temp;Humidity;BMP_temperature;BMP_pressure;BME280_temperature;BME280_humidity;BME280_pressure;Samples;Min_cycle;Max_cycle;Signal;HPM_P1;HPM_P2
2022/06/21 00:01:32;;;;;;;123.07;111.53;;;14.20;84.60;;;;;;4975048;28;20138;-76
2022/06/21 00:03:59;;;;;;;123.93;112.32;;;14.20;84.60;;;;;;4976224;28;20082;-76
2022/06/21 00:06:27;;;;;;;123.57;111.63;;;14.20;84.40;;;;;;4974959;28;20131;-76
2022/06/21 00:08:54;;;;;;;123.95;112.15;;;14.20;84.10;;;;;;4974655;28;20102;-76
2022/06/21 00:11:24;;;;;;;123.78;112.07;;;14.20;83.90;;;;;;4976248;28;20130;-76
2022/06/21 00:13:51;;;;;;;123.85;112.07;;;14.30;84.10;;;;;;4975116;28;20101;-76
2022/06/21 00:16:19;;;;;;;124.22;112.50;;;14.30;84.20;;;;;;4976279;28;20466;-77
2022/06/21 00:18:49;;;;;;;122.68;111.22;;;14.30;83.90;;;;;;4974514;28;20055;-76
2022/06/21 00:21:19;;;;;;;123.68;111.95;;;14.30;83.80;;;;;;4975740;28;20505;-76
2022/06/21 00:23:49;;;;;;;124.40;112.78;;;14.30;83.80;;;;;;4975942;28;20539;-76
2022/06/21 00:26:18;;;;;;;123.93;112.43;;;14.30;83.60;;;;;;4974800;28;20055;-76
2022/06/21 00:28:45;;;;;;;124.35;112.65;;;14.30;83.10;;;;;;4974500;28;20057;-76
2022/06/21 00:31:17;;;;;;;121.95;110.65;;;14.30;82.70;;;;;;4974983;28;20142;-76
2022/06/21 00:33:44;;;;;;;122.65;111.20;;;14.30;82.80;;;;;;4974270;28;20130;-76
2022/06/21 00:36:21;;;;;;;124.28;112.68;;;14.30;82.70;;;;;;4975622;28;20061;-76
2022/06/21 00:38:48;;;;;;;122.47;111.07;;;14.30;82.50;;;;;;4974166;28;20051;-76
2022/06/21 00:41:17;;;;;;;121.88;110.38;;;14.20;82.70;;;;;;4974432;28;20131;-76
2022/06/21 00:43:47;;;;;;;121.47;110.18;;;14.20;82.70;;;;;;4973863;28;20062;-76
2022/06/21 00:46:28;;;;;;;122.88;111.38;;;14.20;82.50;;;;;;4974710;28;20528;-76
2022/06/21 00:48:55;;;;;;;119.15;108.05;;;14.20;82.30;;;;;;4974183;28;20059;-76
2022/06/21 00:51:30;;;;;;;123.13;111.63;;;14.20;82.00;;;;;;4975521;28;20054;-76
2022/06/21 00:54:03;;;;;;;121.85;110.53;;;14.20;81.40;;;;;;4974223;28;20138;-76
2022/06/21 00:56:34;;;;;;;121.50;110.20;;;14.20;81.50;;;;;;4957937;28;20474;-76
2022/06/21 00:59:16;;;;;;;123.15;111.78;;;14.10;81.50;;;;;;4973843;28;20130;-75
2022/06/21 01:01:43;;;;;;;121.07;109.78;;;14.10;81.10;;;;;;4975703;28;20778;-75
2022/06/21 01:04:15;;;;;;;122.50;111.13;;;14.10;81.30;;;;;;4973958;28;20083;-76
2022/06/21 01:06:47;;;;;;;122.47;111.18;;;14.10;81.20;;;;;;4974097;28;20051;-75
2022/06/21 01:09:22;;;;;;;123.07;111.70;;;14.00;81.30;;;;;;4973814;28;20108;-75
2022/06/21 01:11:53;;;;;;;121.35;110.15;;;14.00;81.60;;;;;;4974997;28;20051;-76
2022/06/21 01:14:24;;;;;;;122.65;111.25;;;14.00;81.80;;;;;;4974237;28;20133;-75
2022/06/21 01:16:51;;;;;;;122.88;111.43;;;13.90;81.70;;;;;;4973627;28;20054;-76
2022/06/21 01:19:29;;;;;;;122.90;111.43;;;13.90;81.80;;;;;;4973373;28;20554;-76
2022/06/21 01:22:23;;;;;;;120.82;109.53;;;13.90;81.90;;;;;;4974089;28;20043;-75
2022/06/21 01:24:56;;;;;;;;;;;13.90;81.50;;;;;;4958176;28;20819;-76
2022/06/21 01:27:36;;;;;;;117.22;106.13;;;13.80;78.60;;;;;;4975571;28;19958;-75
2022/06/21 01:30:04;;;;;;;120.47;109.07;;;13.80;80.50;;;;;;4973538;28;20095;-76
2022/06/21 01:32:32;;;;;;;119.32;108.00;;;13.80;80.90;;;;;;4974751;28;20097;-75
2022/06/21 01:35:01;;;;;;;120.88;109.63;;;13.80;80.90;;;;;;4973974;28;20138;-76
2022/06/21 01:37:31;;;;;;;120.82;109.53;;;13.80;80.90;;;;;;4973362;28;20048;-75
2022/06/21 01:40:07;;;;;;;121.57;110.25;;;13.70;80.90;;;;;;4974820;28;20162;-75
2022/06/21 01:42:40;;;;;;;121.45;109.78;;;13.80;81.30;;;;;;4957253;28;20516;-76
2022/06/21 01:45:11;;;;;;;122.72;111.15;;;13.70;81.70;;;;;;4974695;28;20506;-76
2022/06/21 01:47:59;;;;;;;121.55;110.15;;;13.60;81.90;;;;;;4973683;28;20055;-75
2022/06/21 01:50:26;;;;;;;172.93;111.35;;;13.70;81.40;;;;;;4973496;28;20620;-76
2022/06/21 01:52:56;;;;;;;122.68;110.88;;;13.60;82.00;;;;;;4973281;28;20053;-76
2022/06/21 01:55:27;;;;;;;122.43;110.85;;;13.60;82.80;;;;;;4972931;28;20071;-75
2022/06/21 01:57:59;;;;;;;121.93;110.53;;;13.50;82.70;;;;;;4989645;28;20055;-75
2022/06/21 02:00:27;;;;;;;121.50;110.00;;;13.50;82.70;;;;;;4973629;28;20142;-76
2022/06/21 02:03:00;;;;;;;120.47;109.25;;;13.50;82.70;;;;;;4973071;28;20059;-75
2022/06/21 02:05:39;;;;;;;122.15;110.85;;;13.50;82.60;;;;;;4957183;28;20095;-75
2022/06/21 02:08:09;;;;;;;120.40;109.00;;;13.40;82.30;;;;;;4956766;28;20059;-75
2022/06/21 02:10:40;;;;;;;121.93;110.53;;;13.40;82.00;;;;;;4989055;28;20057;-76
2022/06/21 02:13:14;;;;;;;121.30;109.95;;;13.40;81.90;;;;;;4989411;28;20530;-75
2022/06/21 02:15:45;;;;;;;122.93;111.50;;;13.30;81.80;;;;;;4972785;28;20047;-75
2022/06/21 02:18:15;;;;;;;121.18;109.68;;;13.30;81.80;;;;;;4973688;28;20051;-75
2022/06/21 02:20:47;;;;;;;120.45;109.18;;;13.30;82.10;;;;;;4973947;28;20133;-76
2022/06/21 02:23:16;;;;;;;120.32;109.10;;;13.30;82.90;;;;;;4974287;28;20126;-75
2022/06/21 02:25:44;;;;;;;122.28;110.80;;;13.30;83.20;;;;;;4972785;28;20062;-76
2022/06/21 02:28:18;;;;;;;121.07;109.78;;;13.20;83.50;;;;;;4974137;28;20142;-75
2022/06/21 02:30:45;;;;;;;122.63;111.22;;;13.20;83.30;;;;;;4972694;28;20055;-75
2022/06/21 02:33:22;;;;;;;122.32;110.82;;;13.10;83.10;;;;;;4973980;28;20593;-75
2022/06/21 02:35:53;;;;;;;123.38;111.57;;;13.10;83.40;;;;;;4972623;28;20580;-75
2022/06/21 02:38:24;;;;;;;121.00;109.68;;;13.10;83.50;;;;;;4972639;28;20145;-75
2022/06/21 02:40:57;;;;;;;121.18;109.78;;;13.10;83.50;;;;;;4973990;28;20047;-75
2022/06/21 02:43:29;;;;;;;121.78;110.30;;;13.00;83.70;;;;;;4972258;28;20051;-75
2022/06/21 02:46:01;;;;;;;122.75;111.18;;;13.00;83.70;;;;;;4972715;28;20055;-77
2022/06/21 02:48:31;;;;;;;123.18;110.20;;;13.00;83.50;;;;;;4973482;28;20498;-75
2022/06/21 02:51:05;;;;;;;123.82;110.05;;;12.90;83.40;;;;;;4972240;28;20492;-76
2022/06/21 02:53:35;;;;;;;124.32;111.47;;;12.90;83.50;;;;;;4955875;28;20047;-76
2022/06/21 02:56:09;;;;;;;120.70;107.85;;;12.90;83.40;;;;;;4973822;28;20055;-76
2022/06/21 02:58:41;;;;;;;282.85;109.70;;;12.90;83.10;;;;;;4972237;28;20139;-76
2022/06/21 03:01:16;;;;;;;355.50;112.18;;;12.90;83.10;;;;;;4973665;28;20122;-75
2022/06/21 03:03:44;;;;;;;125.38;106.95;;;12.80;83.20;;;;;;4973604;28;20059;-76
2022/06/21 03:06:14;;;;;;;118.40;107.15;;;12.80;83.00;;;;;;4973491;28;20061;-75
2022/06/21 03:09:00;;;;;;;118.88;107.68;;;12.80;82.80;;;;;;4975152;28;20791;-75
2022/06/21 03:11:44;;;;;;;119.40;108.00;;;12.80;82.10;;;;;;4975481;28;20055;-76
2022/06/21 03:14:15;;;;;;;119.63;108.43;;;12.70;82.10;;;;;;4975663;28;20050;-75
2022/06/21 03:16:43;;;;;;;119.10;108.03;;;12.70;81.60;;;;;;4975615;28;20051;-75
2022/06/21 03:19:22;;;;;;;116.88;105.88;;;12.60;81.70;;;;;;4991448;28;20059;-75
2022/06/21 03:21:49;;;;;;;116.82;105.85;;;12.60;81.80;;;;;;4992185;28;20063;-76
2022/06/21 03:24:19;;;;;;;117.40;106.28;;;12.50;81.80;;;;;;4977001;28;20098;-75
2022/06/21 03:26:50;;;;;;;117.90;106.80;;;12.40;82.00;;;;;;4976576;28;20081;-75
2022/06/21 03:29:19;;;;;;;116.45;105.40;;;12.40;82.40;;;;;;4975242;28;20058;-76
2022/06/21 03:31:50;;;;;;;116.18;105.20;;;12.40;82.80;;;;;;4959269;28;20059;-75
2022/06/21 03:34:19;;;;;;;117.90;106.78;;;12.40;83.10;;;;;;4976704;28;20052;-75
2022/06/21 03:36:46;;;;;;;120.72;108.93;;;12.30;83.00;;;;;;4975027;28;20134;-75
2022/06/21 03:39:17;;;;;;;118.47;106.97;;;12.30;83.10;;;;;;4975345;28;20058;-75
2022/06/21 03:41:46;;;;;;;118.88;107.65;;;12.30;82.90;;;;;;4976546;28;20094;-76
2022/06/21 03:44:21;;;;;;;120.72;107.68;;;12.30;83.10;;;;;;4974973;28;20051;-76
2022/06/21 03:46:50;;;;;;;;;;;12.20;83.40;;;;;;4976017;28;20221;-75
2022/06/21 03:49:24;;;;;;;118.00;106.60;;;12.20;81.60;;;;;;4976839;28;19968;-75
2022/06/21 03:51:53;;;;;;;118.38;107.07;;;12.20;83.30;;;;;;4978144;28;20059;-75
2022/06/21 03:54:26;;;;;;;118.20;106.97;;;12.20;83.40;;;;;;4996054;28;20134;-76
2022/06/21 03:56:57;;;;;;;117.80;106.57;;;12.20;83.40;;;;;;4994401;28;20051;-75
2022/06/21 03:59:33;;;;;;;116.80;105.80;;;12.10;83.50;;;;;;4994303;28;20054;-75
2022/06/21 04:02:06;;;;;;;117.10;105.90;;;12.20;83.70;;;;;;4990006;28;20146;-75
2022/06/21 04:04:38;;;;;;;117.28;106.22;;;12.10;83.70;;;;;;4994301;28;20137;-76
2022/06/21 04:07:13;;;;;;;117.95;106.70;;;12.10;83.80;;;;;;4995682;28;20058;-75
2022/06/21 04:09:46;;;;;;;117.22;106.20;;;12.10;84.10;;;;;;4995808;28;20082;-75
2022/06/21 04:12:19;;;;;;;118.68;107.38;;;12.10;84.10;;;;;;4995640;28;20134;-75
2022/06/21 04:14:54;;;;;;;118.57;106.70;;;12.10;84.30;;;;;;4995325;28;20509;-76
2022/06/21 04:17:29;;;;;;;118.80;107.50;;;12.00;84.30;;;;;;4994310;28;20113;-75
2022/06/21 04:20:00;;;;;;;118.38;106.97;;;12.10;84.70;;;;;;4993676;28;20078;-75
2022/06/21 04:22:33;;;;;;;118.28;106.82;;;12.00;84.90;;;;;;4994157;28;20476;-75
2022/06/21 04:25:05;;;;;;;118.30;107.05;;;12.00;85.20;;;;;;4994203;28;20043;-75
2022/06/21 04:27:39;;;;;;;118.70;107.47;;;12.00;85.30;;;;;;4993984;28;20050;-76
2022/06/21 04:30:12;;;;;;;119.13;107.72;;;12.00;85.30;;;;;;4995260;28;20417;-75
2022/06/21 04:32:42;;;;;;;119.50;108.20;;;12.10;86.10;;;;;;4994033;28;20525;-76
2022/06/21 04:35:16;;;;;;;119.70;108.22;;;12.10;86.80;;;;;;4993956;28;20051;-75
2022/06/21 04:37:47;;;;;;;117.70;106.50;;;12.10;87.10;;;;;;4993503;28;20061;-75
2022/06/21 04:40:21;;;;;;;119.03;107.68;;;12.10;87.20;;;;;;4993990;28;20117;-76
2022/06/21 04:42:54;;;;;;;119.78;108.38;;;12.00;87.60;;;;;;4993968;28;20074;-76
2022/06/21 04:45:28;;;;;;;124.22;112.35;;;12.00;88.10;;;;;;4993998;28;20098;-76
2022/06/21 04:48:06;;;;;;;123.60;111.50;;;12.10;88.90;;;;;;4993664;28;20124;-76
2022/06/21 04:50:39;;;;;;;119.45;107.65;;;12.10;90.00;;;;;;4993924;28;20058;-76
2022/06/21 04:53:14;;;;;;;120.53;108.63;;;12.10;90.20;;;;;;4995236;28;20059;-76
2022/06/21 04:55:55;;;;;;;119.75;108.18;;;12.10;90.50;;;;;;4994984;28;20102;-76
2022/06/21 04:58:22;;;;;;;119.82;108.10;;;12.10;90.80;;;;;;4994665;28;20058;-76
2022/06/21 05:00:51;;;;;;;124.07;111.93;;;12.10;91.00;;;;;;4993543;28;20134;-76
2022/06/21 05:03:30;;;;;;;120.53;108.80;;;12.10;91.30;;;;;;4989245;28;20058;-76
2022/06/21 05:05:59;;;;;;;119.47;107.72;;;12.10;91.70;;;;;;4985699;28;20508;-76
2022/06/21 05:08:26;;;;;;;122.38;110.65;;;12.10;91.90;;;;;;4985036;28;20145;-76
2022/06/21 05:10:56;;;;;;;124.70;112.95;;;12.10;92.10;;;;;;4988049;28;20137;-76
2022/06/21 05:13:28;;;;;;;120.38;108.47;;;12.10;92.40;;;;;;4989534;28;20489;-76
2022/06/21 05:15:58;;;;;;;118.63;107.05;;;12.10;92.70;;;;;;4989462;28;20531;-76
2022/06/21 05:18:30;;;;;;;121.03;109.10;;;12.20;92.90;;;;;;4973200;28;20055;-77
2022/06/21 05:21:01;;;;;;;122.20;109.68;;;12.20;93.10;;;;;;4980944;28;20093;-75
2022/06/21 05:23:31;;;;;;;120.35;108.40;;;12.20;93.30;;;;;;4989728;28;20057;-79
2022/06/21 05:26:02;;;;;;;122.60;110.90;;;12.30;93.50;;;;;;4975065;28;20533;-75
2022/06/21 05:28:33;;;;;;;121.60;109.70;;;12.30;93.70;;;;;;4980641;28;20920;-75
2022/06/21 05:31:07;;;;;;;122.07;110.40;;;12.30;94.00;;;;;;4977204;28;20569;-75
2022/06/21 05:33:39;;;;;;;120.47;108.70;;;12.40;94.30;;;;;;4980563;28;20141;-76
2022/06/21 05:36:11;;;;;;;120.50;108.53;;;12.40;94.40;;;;;;4984503;28;20047;-76
2022/06/21 05:38:50;;;;;;;121.38;109.47;;;12.50;94.60;;;;;;4989996;28;20519;-76
2022/06/21 05:41:33;;;;;;;121.40;109.25;;;12.60;94.90;;;;;;4985643;28;20047;-76
2022/06/21 05:44:02;;;;;;;120.47;108.97;;;12.60;94.90;;;;;;4977957;28;20050;-76
2022/06/21 05:46:34;;;;;;;121.00;109.32;;;12.70;95.00;;;;;;4982052;28;20063;-76
2022/06/21 05:49:08;;;;;;;119.57;107.93;;;12.80;95.30;;;;;;4981929;28;20054;-75
2022/06/21 05:51:35;;;;;;;122.20;110.57;;;12.80;95.20;;;;;;4986645;28;20079;-75
2022/06/21 05:54:06;;;;;;;121.35;109.65;;;12.90;95.20;;;;;;4992588;28;20514;-76
2022/06/21 05:56:37;;;;;;;138.43;111.13;;;13.00;95.40;;;;;;4984319;28;20506;-75
2022/06/21 05:59:08;;;;;;;123.95;110.38;;;13.00;95.60;;;;;;4981398;28;20058;-76
2022/06/21 06:01:42;;;;;;;121.22;109.32;;;13.10;95.70;;;;;;4977461;28;20051;-75
2022/06/21 06:04:13;;;;;;;122.60;111.00;;;13.20;95.70;;;;;;4973068;28;20052;-75
2022/06/21 06:06:44;;;;;;;122.30;110.75;;;13.20;95.70;;;;;;4972996;28;20505;-76
2022/06/21 06:09:14;;;;;;;122.20;110.55;;;13.30;95.80;;;;;;4973857;28;20065;-74
2022/06/21 06:12:01;;;;;;;121.93;110.15;;;13.30;95.80;;;;;;4988386;28;20078;-74
2022/06/21 06:14:34;;;;;;;121.95;109.90;;;13.40;95.90;;;;;;4973923;28;20065;-79
2022/06/21 06:17:08;;;;;;;124.50;112.20;;;13.40;95.70;;;;;;4972687;28;20110;-78
2022/06/21 06:19:39;;;;;;;122.45;110.97;;;13.40;95.60;;;;;;4972616;28;20055;-78
2022/06/21 06:22:17;;;;;;;124.68;112.70;;;13.50;95.90;;;;;;4972955;28;20126;-78
2022/06/21 06:24:50;;;;;;;124.05;112.30;;;13.60;96.00;;;;;;4975403;28;20532;-74
2022/06/21 06:27:34;;;;;;;125.88;112.75;;;13.60;96.20;;;;;;4972451;28;20067;-73
2022/06/21 06:30:05;;;;;;;126.95;110.40;;;13.70;96.00;;;;;;4973756;28;20056;-73
2022/06/21 06:32:39;;;;;;;121.00;109.30;;;13.80;96.10;;;;;;4971793;28;20055;-74
2022/06/21 06:35:14;;;;;;;123.18;111.68;;;13.80;95.90;;;;;;4972261;28;20047;-74
2022/06/21 06:37:43;;;;;;;124.50;112.57;;;13.90;95.70;;;;;;4971406;28;20095;-74
2022/06/21 06:40:20;;;;;;;121.47;109.50;;;13.90;95.80;;;;;;4978060;28;20055;-74
2022/06/21 06:42:48;;;;;;;120.95;109.45;;;14.00;96.00;;;;;;5002607;28;20950;-74
2022/06/21 06:45:20;;;;;;;120.57;109.15;;;14.00;95.90;;;;;;4980182;28;20106;-74
2022/06/21 06:47:50;;;;;;;120.95;109.70;;;14.10;95.80;;;;;;4983447;28;20160;-74
2022/06/21 06:50:22;;;;;;;121.93;110.65;;;14.10;95.70;;;;;;4984943;28;20046;-74
2022/06/21 06:52:52;;;;;;;123.85;112.18;;;14.20;95.50;;;;;;4987347;28;20137;-74
2022/06/21 06:55:26;;;;;;;122.85;111.25;;;14.30;95.30;;;;;;4984815;28;20127;-73
2022/06/21 06:57:58;;;;;;;119.80;108.60;;;14.30;95.10;;;;;;4977130;28;20047;-74
2022/06/21 07:00:32;;;;;;;120.25;109.07;;;14.40;95.10;;;;;;4971554;28;20081;-75
2022/06/21 07:03:07;;;;;;;119.97;108.63;;;14.40;94.90;;;;;;4983435;28;20134;-74
2022/06/21 07:05:38;;;;;;;118.63;107.53;;;14.40;94.80;;;;;;4996111;28;20055;-74
2022/06/21 07:08:16;;;;;;;121.32;109.90;;;14.50;94.60;;;;;;4994610;28;20559;-74
2022/06/21 07:10:46;;;;;;;121.13;109.90;;;14.50;94.60;;;;;;4994031;28;21027;-74
2022/06/21 07:13:13;;;;;;;122.75;111.30;;;14.60;94.50;;;;;;4995467;28;20051;-74
2022/06/21 07:15:45;;;;;;;122.80;111.18;;;14.60;94.40;;;;;;4995845;28;20113;-73
2022/06/21 07:18:16;;;;;;;123.32;111.68;;;14.70;94.50;;;;;;4986728;28;20063;-74
2022/06/21 07:20:45;;;;;;;121.93;110.53;;;14.80;94.30;;;;;;4981549;28;20113;-74
2022/06/21 07:23:15;;;;;;;123.40;111.68;;;14.80;94.10;;;;;;4994152;28;20059;-74
2022/06/21 07:25:45;;;;;;;123.53;111.75;;;14.90;94.00;;;;;;4997878;28;20113;-74
2022/06/21 07:28:16;;;;;;;123.18;111.50;;;14.90;94.00;;;;;;4987400;28;20047;-74
2022/06/21 07:30:48;;;;;;;123.43;112.05;;;15.00;94.00;;;;;;4986035;28;20051;-74
2022/06/21 07:33:24;;;;;;;124.28;112.70;;;15.00;93.90;;;;;;4985556;28;20122;-74
2022/06/21 07:36:02;;;;;;;126.18;114.47;;;15.10;93.80;;;;;;4974143;28;20055;-75
2022/06/21 07:38:39;;;;;;;123.50;112.05;;;15.10;93.80;;;;;;4990562;28;20529;-74
2022/06/21 07:41:12;;;;;;;125.28;113.72;;;15.20;93.70;;;;;;4990429;28;20078;-75
2022/06/21 07:43:45;;;;;;;124.45;112.78;;;15.20;93.60;;;;;;4990108;28;20055;-75
2022/06/21 07:46:17;;;;;;;127.55;115.63;;;15.30;93.60;;;;;;4969939;28;20075;-75
2022/06/21 07:48:51;;;;;;;127.25;115.75;;;15.30;93.30;;;;;;4981893;28;20058;-75
2022/06/21 07:51:21;;;;;;;126.35;114.25;;;15.40;93.10;;;;;;4994457;28;20050;-75
2022/06/21 07:53:51;;;;;;;125.78;114.10;;;15.40;93.20;;;;;;4976352;28;20055;-75
2022/06/21 07:56:23;;;;;;;126.93;114.85;;;15.50;93.30;;;;;;4958587;28;20129;-75
2022/06/21 07:58:56;;;;;;;127.80;116.05;;;15.50;93.30;;;;;;4974118;28;20055;-73
2022/06/21 08:07:11;;;;;;;128.45;116.85;;;15.70;93.10;;;;;;4969546;28;20059;-82
2022/06/21 08:09:43;;;;;;;128.93;117.20;;;15.70;93.10;;;;;;4985314;28;20050;-82
2022/06/21 08:12:12;;;;;;;130.45;118.50;;;15.80;92.90;;;;;;4980639;28;20150;-81
2022/06/21 08:14:39;;;;;;;129.30;117.50;;;15.80;92.60;;;;;;4975179;28;20075;-81
2022/06/21 08:17:15;;;;;;;129.27;117.43;;;15.90;92.60;;;;;;4981316;28;20047;-82
2022/06/21 08:19:47;;;;;;;124.22;112.90;;;16.00;92.70;;;;;;4984319;28;20055;-82
2022/06/21 08:22:19;;;;;;;125.05;113.65;;;16.00;92.50;;;;;;4975410;28;20047;-82
2022/06/21 08:24:53;;;;;;;124.85;113.65;;;16.00;91.90;;;;;;4988468;28;20051;-81
2022/06/21 08:27:28;;;;;;;128.00;116.53;;;16.10;91.40;;;;;;4978328;28;20109;-83
2022/06/21 08:29:58;;;;;;;128.15;117.03;;;16.10;91.10;;;;;;4974425;28;20043;-81
2022/06/21 08:32:33;;;;;;;128.68;117.40;;;16.10;90.90;;;;;;4978091;28;20665;-81
2022/06/21 08:35:12;;;;;;;127.45;116.28;;;16.10;90.70;;;;;;4975995;28;20594;-81
2022/06/21 08:37:46;;;;;;;129.52;118.10;;;16.20;90.60;;;;;;4984570;28;20468;-81
2022/06/21 08:40:51;;;;;;;131.98;120.40;;;16.20;90.60;;;;;;4984644;28;20047;-81
2022/06/21 08:43:54;;;;;;;128.98;117.45;;;16.20;90.60;;;;;;4991361;28;20051;-76
2022/06/21 08:46:51;;;;;;;129.75;118.07;;;16.30;90.80;;;;;;4991697;28;20417;-83
2022/06/21 08:50:01;;;;;;;128.15;116.55;;;16.30;90.70;;;;;;4987748;28;20489;-82
2022/06/21 08:53:01;;;;;;;129.60;118.00;;;16.40;90.70;;;;;;4980311;28;20055;-81
2022/06/21 08:55:36;;;;;;;127.30;116.13;;;16.50;91.00;;;;;;4984250;28;20113;-83
2022/06/21 08:58:17;;;;;;;129.10;117.80;;;16.60;90.80;;;;;;4972719;28;20055;-81
2022/06/21 09:00:50;;;;;;;127.95;116.45;;;16.60;90.50;;;;;;4974591;28;20050;-81
2022/06/21 09:03:29;;;;;;;128.20;116.22;;;16.70;89.70;;;;;;4957765;28;20063;-81
2022/06/21 09:06:13;;;;;;;127.55;116.53;;;16.70;88.50;;;;;;4990125;28;20073;-79
2022/06/21 09:08:52;;;;;;;;;;;16.80;87.50;;;;;;4973871;28;20052;-77
2022/06/21 09:11:28;;;;;;;127.65;116.35;;;16.80;88.00;;;;;;4974503;28;20396;-80
2022/06/21 09:14:20;;;;;;;128.30;116.45;;;16.90;88.30;;;;;;4989910;28;20534;-83
2022/06/21 09:16:56;;;;;;;130.98;118.82;;;16.90;88.20;;;;;;4988170;28;20065;-80
2022/06/21 09:19:40;;;;;;;129.95;118.85;;;17.00;88.50;;;;;;4987963;28;20463;-79
2022/06/21 09:22:15;;;;;;;197.48;125.43;;;17.10;88.10;;;;;;4982344;28;20063;-80
2022/06/21 09:24:52;;;;;;;130.43;118.85;;;17.20;88.10;;;;;;4985002;28;20046;-80
2022/06/21 09:27:25;;;;;;;130.85;119.47;;;17.20;88.20;;;;;;4981733;28;20066;-79
2022/06/21 09:30:05;;;;;;;131.73;120.18;;;17.30;87.40;;;;;;4987418;28;20505;-81
2022/06/21 09:32:38;;;;;;;128.50;117.25;;;17.40;87.30;;;;;;4986283;28;20138;-80
2022/06/21 09:35:18;;;;;;;158.10;123.35;;;17.50;87.20;;;;;;4990347;28;20043;-81
2022/06/21 09:37:58;;;;;;;130.48;119.20;;;17.60;86.80;;;;;;4986229;28;20051;-80
2022/06/21 09:40:31;;;;;;;129.73;118.43;;;17.70;86.50;;;;;;4975795;28;20050;-80
2022/06/21 09:43:12;;;;;;;130.48;119.35;;;17.70;86.40;;;;;;4991660;28;20134;-80
2022/06/21 09:45:48;;;;;;;129.50;118.60;;;17.80;86.60;;;;;;5007177;28;20137;-81
2022/06/21 09:48:19;;;;;;;133.10;122.30;;;17.90;87.30;;;;;;4969120;28;20562;-80
2022/06/21 09:50:54;;;;;;;136.07;124.97;;;18.00;86.60;;;;;;4972417;28;20564;-80
2022/06/21 09:53:32;;;;;;;137.48;126.30;;;18.10;85.30;;;;;;4990882;28;20062;-80
2022/06/21 09:56:09;;;;;;;136.52;125.43;;;18.20;85.20;;;;;;4991119;28;20049;-80
2022/06/21 09:58:42;;;;;;;136.18;124.82;;;18.30;82.90;;;;;;4990518;28;20098;-80
2022/06/21 10:01:13;;;;;;;135.98;124.80;;;18.30;81.70;;;;;;4972863;28;20134;-81
2022/06/21 10:03:49;;;;;;;134.15;123.20;;;18.40;81.00;;;;;;4972290;28;20051;-81
2022/06/21 10:06:25;;;;;;;132.38;121.30;;;18.40;82.00;;;;;;4985655;28;20146;-81
2022/06/21 10:09:08;;;;;;;133.93;123.07;;;18.50;82.40;;;;;;4972328;28;20059;-82
2022/06/21 10:11:46;;;;;;;136.68;125.35;;;18.60;82.50;;;;;;4997955;23;20122;-82
2022/06/21 10:14:52;;;;;;;138.35;127.28;;;18.60;80.90;;;;;;4966620;28;20520;-82
2022/06/21 10:17:55;;;;;;;137.65;126.28;;;18.70;79.70;;;;;;4924100;28;20134;-82
2022/06/21 10:20:38;;;;;;;133.52;122.53;;;18.80;79.10;;;;;;4971710;28;20047;-82
2022/06/21 10:23:22;;;;;;;137.65;126.35;;;18.80;79.00;;;;;;4980454;28;20139;-81
2022/06/21 10:26:02;;;;;;;138.90;127.45;;;18.90;79.80;;;;;;5004673;28;20500;-82
2022/06/21 10:28:56;;;;;;;138.55;127.35;;;19.00;80.30;;;;;;4990198;28;20062;-82
2022/06/21 10:31:43;;;;;;;135.00;123.88;;;19.00;80.50;;;;;;4972873;28;20145;-81
2022/06/21 10:34:34;;;;;;;135.88;124.85;;;19.10;80.00;;;;;;4989905;28;20051;-82
2022/06/21 10:37:27;;;;;;;139.02;127.43;;;19.20;80.90;;;;;;4981693;28;20055;-82
2022/06/21 10:40:23;;;;;;;134.52;123.70;;;19.30;81.00;;;;;;4990389;28;20461;-82
2022/06/21 10:43:16;;;;;;;132.82;122.13;;;19.40;80.50;;;;;;4988551;28;20054;-82
2022/06/21 10:45:49;;;;;;;140.73;128.73;;;19.40;79.50;;;;;;4990321;28;20057;-82
2022/06/21 10:49:03;;;;;;;140.35;129.23;;;19.50;79.30;;;;;;4990527;28;20089;-82
2022/06/21 10:51:48;;;;;;;136.77;125.85;;;19.60;79.50;;;;;;4986385;28;20109;-82
2022/06/21 10:54:27;;;;;;;132.63;121.35;;;19.70;79.60;;;;;;4990119;28;20134;-81
2022/06/21 10:57:13;;;;;;;140.88;129.80;;;19.80;77.00;;;;;;5005548;28;20141;-81
2022/06/21 11:03:05;;;;;;;137.10;126.05;;;19.90;76.20;;;;;;4989154;28;20055;-82
2022/06/21 11:05:39;;;;;;;139.32;128.43;;;19.90;75.70;;;;;;4988413;28;20129;-83
2022/06/21 11:08:15;;;;;;;136.88;126.00;;;20.00;77.50;;;;;;4989551;28;20059;-83
2022/06/21 11:10:50;;;;;;;137.95;127.05;;;20.00;76.60;;;;;;4974103;28;20520;-81
2022/06/21 11:13:20;;;;;;;138.73;127.65;;;20.10;75.90;;;;;;5002660;28;20349;-80
2022/06/21 11:15:57;;;;;;;139.27;128.32;;;20.20;76.00;;;;;;4974495;28;20058;-81
2022/06/21 11:18:39;;;;;;;141.07;130.15;;;20.30;74.00;;;;;;4987411;28;20635;-80
2022/06/21 11:21:17;;;;;;;138.68;127.78;;;20.40;74.40;;;;;;5003871;28;20493;-80
2022/06/21 11:23:53;;;;;;;141.63;130.52;;;20.50;73.60;;;;;;4971873;28;20584;-80
2022/06/21 11:26:27;;;;;;;142.43;131.32;;;20.60;73.70;;;;;;4966257;28;20548;-79
2022/06/21 11:28:58;;;;;;;;;;;20.70;73.90;;;;;;4989435;28;20158;-80
2022/06/21 11:31:32;;;;;;;140.57;129.45;;;20.80;74.50;;;;;;4994009;28;19925;-81
2022/06/21 11:34:10;;;;;;;136.52;125.78;;;20.90;73.00;;;;;;4992134;28;20063;-82
2022/06/21 11:36:43;;;;;;;141.32;130.32;;;20.90;71.60;;;;;;4992393;28;20587;-81
2022/06/21 11:39:25;;;;;;;138.68;128.18;;;21.00;72.00;;;;;;4992490;28;20118;-79
2022/06/21 11:42:08;;;;;;;143.38;132.35;;;21.00;73.40;;;;;;4989897;28;20528;-79
2022/06/21 11:45:07;;;;;;;139.77;128.95;;;21.10;74.40;;;;;;4984453;28;20047;-79
2022/06/21 11:48:06;;;;;;;142.30;131.50;;;21.30;73.10;;;;;;4991348;28;20565;-78
2022/06/21 11:50:45;;;;;;;145.00;134.13;;;21.40;73.60;;;;;;4972149;28;20497;-76
2022/06/21 11:53:31;;;;;;;144.77;133.27;;;21.40;72.70;;;;;;4991435;28;20137;-76
2022/06/21 11:56:04;;;;;;;146.10;134.85;;;21.60;73.50;;;;;;4990361;28;20540;-77
2022/06/21 11:58:36;;;;;;;145.38;134.55;;;21.60;72.30;;;;;;4985681;28;20090;-77
2022/06/21 12:01:13;;;;;;;145.50;134.60;;;21.70;72.60;;;;;;4971343;28;20058;-80
2022/06/21 12:03:51;;;;;;;142.23;131.70;;;21.80;71.10;;;;;;4992026;28;20496;-76
2022/06/21 12:06:29;;;;;;;142.77;132.30;;;21.90;70.20;;;;;;4993000;28;20081;-79
2022/06/21 12:09:01;;;;;;;146.52;135.65;;;22.00;68.70;;;;;;5000358;28;20058;-79
2022/06/21 12:11:38;;;;;;;148.05;137.02;;;22.10;69.00;;;;;;4983077;28;20086;-78
2022/06/21 12:14:21;;;;;;;143.95;133.25;;;22.20;69.70;;;;;;4984778;28;20059;-79
2022/06/21 12:16:57;;;;;;;149.07;138.07;;;22.30;69.10;;;;;;4979904;28;20122;-76
2022/06/21 12:19:35;;;;;;;147.75;136.75;;;22.40;68.70;;;;;;4991226;28;20061;-75
2022/06/21 12:22:14;;;;;;;145.90;135.00;;;22.50;66.90;;;;;;4992174;28;20130;-76
2022/06/21 12:24:41;;;;;;;144.23;133.43;;;22.60;66.10;;;;;;4990538;28;20102;-77
2022/06/21 12:27:11;;;;;;;148.23;137.38;;;22.60;65.60;;;;;;4991848;28;20082;-76
2022/06/21 12:29:38;;;;;;;142.40;131.98;;;22.70;65.20;;;;;;4992952;28;20074;-78
2022/06/21 12:32:13;;;;;;;148.15;137.02;;;22.70;65.30;;;;;;4990284;28;20350;-76
2022/06/21 12:34:42;;;;;;;149.98;137.35;;;22.80;65.20;;;;;;4990744;28;20153;-76
2022/06/21 12:37:14;;;;;;;154.40;142.85;;;22.90;64.60;;;;;;4990104;28;20511;-76
2022/06/21 12:39:48;;;;;;;145.75;134.95;;;22.90;65.10;;;;;;4990614;28;20054;-75
2022/06/21 12:42:43;;;;;;;146.77;136.05;;;23.00;64.20;;;;;;4988718;28;20046;-81
2022/06/21 12:45:30;;;;;;;147.75;136.85;;;23.10;65.00;;;;;;4967522;28;20170;-75
2022/06/21 12:48:12;;;;;;;145.57;134.82;;;23.10;64.60;;;;;;4989979;28;20091;-74
2022/06/21 12:51:01;;;;;;;148.48;137.60;;;23.20;65.00;;;;;;4991771;28;20082;-73
2022/06/21 12:53:50;;;;;;;149.90;138.55;;;23.30;65.00;;;;;;4991303;28;20055;-81
2022/06/21 12:56:37;;;;;;;149.00;137.90;;;23.30;64.60;;;;;;4981652;28;20047;-77